sensor_id;sensor_type;location;lat;lon;timestamp;temperature;humidity
53520;DHT22;39397;53.204;5.778;2023-03-08T00:01:48;1.30;99.90
53520;DHT22;39397;53.204;5.778;2023-03-08T00:04:14;2.80;99.90
53520;DHT22;39397;53.204;5.778;2023-03-08T00:06:40;1.90;99.90
53520;DHT22;39397;53.204;5.778;2023-03-08T00:09:05;1.80;99.90
53520;DHT22;39397;53.204;5.778;2023-03-08T00:11:31;1.30;99.90
53520;DHT22;39397;53.204;5.778;2023-03-08T00:13:57;1.30;99.90
53520;DHT22;39397;53.204;5.778;2023-03-08T00:16:23;2.20;99.90
53520;DHT22;39397;53.204;5.778;2023-03-08T00:18:49;0.90;99.90
53520;DHT22;39397;53.204;5.778;2023-03-08T00:21:16;0.90;99.90
53520;DHT22;39397;53.204;5.778;2023-03-08T00:23:43;0.80;99.90
53520;DHT22;39397;53.204;5.778;2023-03-08T00:26:10;-0.20;99.90
53520;DHT22;39397;53.204;5.778;2023-03-08T00:28:36;1.70;99.90
53520;DHT22;39397;53.204;5.778;2023-03-08T00:31:09;0.70;99.90
53520;DHT22;39397;53.204;5.778;2023-03-08T00:33:39;0.60;99.90
53520;DHT22;39397;53.204;5.778;2023-03-08T00:36:09;1.90;99.90
53520;DHT22;39397;53.204;5.778;2023-03-08T00:38:35;0.60;99.90
53520;DHT22;39397;53.204;5.778;2023-03-08T00:41:02;0.40;99.90
53520;DHT22;39397;53.204;5.778;2023-03-08T00:43:28;0.50;99.90
53520;DHT22;39397;53.204;5.778;2023-03-08T00:45:54;1.00;99.90
53520;DHT22;39397;53.204;5.778;2023-03-08T00:48:20;2.20;99.90
53520;DHT22;39397;53.204;5.778;2023-03-08T00:50:46;2.00;99.90
53520;DHT22;39397;53.204;5.778;2023-03-08T00:53:12;1.00;99.90
53520;DHT22;39397;53.204;5.778;2023-03-08T00:55:38;0.60;99.90
53520;DHT22;39397;53.204;5.778;2023-03-08T00:58:04;0.60;99.90
53520;DHT22;39397;53.204;5.778;2023-03-08T01:00:30;1.20;99.90
53520;DHT22;39397;53.204;5.778;2023-03-08T01:02:56;1.50;99.90
53520;DHT22;39397;53.204;5.778;2023-03-08T01:05:22;0.70;99.90
53520;DHT22;39397;53.204;5.778;2023-03-08T01:07:48;0.80;99.90
53520;DHT22;39397;53.204;5.778;2023-03-08T01:10:14;0.70;99.90
53520;DHT22;39397;53.204;5.778;2023-03-08T01:12:40;2.70;99.90
53520;DHT22;39397;53.204;5.778;2023-03-08T01:15:07;0.70;99.90
53520;DHT22;39397;53.204;5.778;2023-03-08T01:17:32;0.30;99.90
53520;DHT22;39397;53.204;5.778;2023-03-08T01:19:58;1.00;99.90
53520;DHT22;39397;53.204;5.778;2023-03-08T01:22:24;0.70;99.90
53520;DHT22;39397;53.204;5.778;2023-03-08T01:24:50;0.70;99.90
53520;DHT22;39397;53.204;5.778;2023-03-08T01:27:16;0.70;99.90
53520;DHT22;39397;53.204;5.778;2023-03-08T01:29:42;0.70;99.90
53520;DHT22;39397;53.204;5.778;2023-03-08T01:32:09;0.70;99.90
53520;DHT22;39397;53.204;5.778;2023-03-08T01:34:38;2.60;99.90
53520;DHT22;39397;53.204;5.778;2023-03-08T01:37:04;2.60;99.90
53520;DHT22;39397;53.204;5.778;2023-03-08T01:39:30;0.80;99.90
53520;DHT22;39397;53.204;5.778;2023-03-08T01:41:56;1.70;99.90
53520;DHT22;39397;53.204;5.778;2023-03-08T01:44:22;0.90;99.90
53520;DHT22;39397;53.204;5.778;2023-03-08T01:46:48;1.70;99.90
53520;DHT22;39397;53.204;5.778;2023-03-08T01:49:21;1.90;99.90
53520;DHT22;39397;53.204;5.778;2023-03-08T01:52:09;0.90;99.90
53520;DHT22;39397;53.204;5.778;2023-03-08T01:54:42;0.90;99.90
53520;DHT22;39397;53.204;5.778;2023-03-08T01:57:32;1.30;99.90
53520;DHT22;39397;53.204;5.778;2023-03-08T02:00:04;0.50;99.90
53520;DHT22;39397;53.204;5.778;2023-03-08T02:02:38;0.30;99.90
53520;DHT22;39397;53.204;5.778;2023-03-08T02:05:06;2.10;99.90
53520;DHT22;39397;53.204;5.778;2023-03-08T02:07:32;0.00;99.90
53520;DHT22;39397;53.204;5.778;2023-03-08T02:09:58;-0.10;99.90
53520;DHT22;39397;53.204;5.778;2023-03-08T02:12:24;1.90;99.90
53520;DHT22;39397;53.204;5.778;2023-03-08T02:14:50;-0.10;99.90
53520;DHT22;39397;53.204;5.778;2023-03-08T02:17:17;-0.20;99.90
53520;DHT22;39397;53.204;5.778;2023-03-08T02:19:53;-0.30;99.90
53520;DHT22;39397;53.204;5.778;2023-03-08T02:22:20;-0.30;99.90
53520;DHT22;39397;53.204;5.778;2023-03-08T02:24:46;1.50;99.90
53520;DHT22;39397;53.204;5.778;2023-03-08T02:27:23;1.60;99.90
53520;DHT22;39397;53.204;5.778;2023-03-08T02:29:50;1.30;99.90
53520;DHT22;39397;53.204;5.778;2023-03-08T02:32:16;1.30;99.90
53520;DHT22;39397;53.204;5.778;2023-03-08T02:34:42;1.60;99.90
53520;DHT22;39397;53.204;5.778;2023-03-08T02:37:08;1.40;99.90
53520;DHT22;39397;53.204;5.778;2023-03-08T02:39:34;-0.40;99.90
53520;DHT22;39397;53.204;5.778;2023-03-08T02:41:59;1.10;99.90
53520;DHT22;39397;53.204;5.778;2023-03-08T02:44:25;0.50;99.90
53520;DHT22;39397;53.204;5.778;2023-03-08T02:46:51;-0.90;99.90
53520;DHT22;39397;53.204;5.778;2023-03-08T02:49:17;-0.70;99.90
53520;DHT22;39397;53.204;5.778;2023-03-08T02:51:43;-0.70;99.90
53520;DHT22;39397;53.204;5.778;2023-03-08T02:54:08;-0.80;99.90
53520;DHT22;39397;53.204;5.778;2023-03-08T02:56:34;0.70;99.90
53520;DHT22;39397;53.204;5.778;2023-03-08T02:59:02;0.50;99.90
53520;DHT22;39397;53.204;5.778;2023-03-08T03:01:28;-0.70;99.90
53520;DHT22;39397;53.204;5.778;2023-03-08T03:03:54;-0.20;99.90
53520;DHT22;39397;53.204;5.778;2023-03-08T03:06:20;-1.00;99.90
53520;DHT22;39397;53.204;5.778;2023-03-08T03:08:46;0.40;99.90
53520;DHT22;39397;53.204;5.778;2023-03-08T03:11:17;1.00;99.90
53520;DHT22;39397;53.204;5.778;2023-03-08T03:13:44;-0.90;99.90
53520;DHT22;39397;53.204;5.778;2023-03-08T03:16:14;0.10;99.90
53520;DHT22;39397;53.204;5.778;2023-03-08T03:18:41;-0.90;99.90
53520;DHT22;39397;53.204;5.778;2023-03-08T03:21:10;-0.80;99.90
53520;DHT22;39397;53.204;5.778;2023-03-08T03:23:36;-0.80;99.90
53520;DHT22;39397;53.204;5.778;2023-03-08T03:26:13;1.00;99.90
53520;DHT22;39397;53.204;5.778;2023-03-08T03:28:39;-0.90;99.90
53520;DHT22;39397;53.204;5.778;2023-03-08T03:31:07;-0.90;99.90
53520;DHT22;39397;53.204;5.778;2023-03-08T03:33:33;-0.90;99.90
53520;DHT22;39397;53.204;5.778;2023-03-08T03:35:59;0.60;99.90
53520;DHT22;39397;53.204;5.778;2023-03-08T03:38:25;1.10;99.90
53520;DHT22;39397;53.204;5.778;2023-03-08T03:40:59;-1.00;99.90
53520;DHT22;39397;53.204;5.778;2023-03-08T03:43:25;-1.00;99.90
53520;DHT22;39397;53.204;5.778;2023-03-08T03:45:58;-0.40;99.90
53520;DHT22;39397;53.204;5.778;2023-03-08T03:48:24;0.70;99.90
53520;DHT22;39397;53.204;5.778;2023-03-08T03:51:05;-1.00;99.90
53520;DHT22;39397;53.204;5.778;2023-03-08T03:53:32;-1.10;99.90
53520;DHT22;39397;53.204;5.778;2023-03-08T03:56:08;0.30;99.90
53520;DHT22;39397;53.204;5.778;2023-03-08T03:58:34;-1.10;99.90
53520;DHT22;39397;53.204;5.778;2023-03-08T04:01:09;0.10;99.90
53520;DHT22;39397;53.204;5.778;2023-03-08T04:03:35;-0.30;99.90
53520;DHT22;39397;53.204;5.778;2023-03-08T04:06:11;-0.30;99.90
53520;DHT22;39397;53.204;5.778;2023-03-08T04:08:38;-1.10;99.90
53520;DHT22;39397;53.204;5.778;2023-03-08T04:11:18;0.00;99.90
53520;DHT22;39397;53.204;5.778;2023-03-08T04:13:45;0.60;99.90
53520;DHT22;39397;53.204;5.778;2023-03-08T04:16:19;-1.20;99.90
53520;DHT22;39397;53.204;5.778;2023-03-08T04:18:47;-1.00;99.90
53520;DHT22;39397;53.204;5.778;2023-03-08T04:21:13;-1.10;99.90
53520;DHT22;39397;53.204;5.778;2023-03-08T04:23:39;0.30;99.90
53520;DHT22;39397;53.204;5.778;2023-03-08T04:26:06;0.60;99.90
53520;DHT22;39397;53.204;5.778;2023-03-08T04:28:32;0.20;99.90
53520;DHT22;39397;53.204;5.778;2023-03-08T04:30:59;0.50;99.90
53520;DHT22;39397;53.204;5.778;2023-03-08T04:33:25;0.50;99.90
53520;DHT22;39397;53.204;5.778;2023-03-08T04:35:51;0.70;99.90
53520;DHT22;39397;53.204;5.778;2023-03-08T04:38:17;-0.20;99.90
53520;DHT22;39397;53.204;5.778;2023-03-08T04:40:49;0.70;99.90
53520;DHT22;39397;53.204;5.778;2023-03-08T04:43:33;0.90;99.90
53520;DHT22;39397;53.204;5.778;2023-03-08T04:46:01;0.00;99.90
53520;DHT22;39397;53.204;5.778;2023-03-08T04:48:28;0.20;99.90
53520;DHT22;39397;53.204;5.778;2023-03-08T04:50:54;-0.70;99.90
53520;DHT22;39397;53.204;5.778;2023-03-08T04:53:21;0.80;99.90
53520;DHT22;39397;53.204;5.778;2023-03-08T04:55:48;-1.20;99.90
53520;DHT22;39397;53.204;5.778;2023-03-08T04:58:14;-1.20;99.90
53520;DHT22;39397;53.204;5.778;2023-03-08T05:00:40;-1.00;99.90
53520;DHT22;39397;53.204;5.778;2023-03-08T05:03:06;1.00;99.90
53520;DHT22;39397;53.204;5.778;2023-03-08T05:05:32;-1.10;99.90
53520;DHT22;39397;53.204;5.778;2023-03-08T05:07:57;-1.00;99.90
53520;DHT22;39397;53.204;5.778;2023-03-08T05:10:31;0.90;99.90
53520;DHT22;39397;53.204;5.778;2023-03-08T05:12:57;-0.10;99.90
53520;DHT22;39397;53.204;5.778;2023-03-08T05:15:23;0.80;99.90
53520;DHT22;39397;53.204;5.778;2023-03-08T05:17:49;-2.80;99.90
53520;DHT22;39397;53.204;5.778;2023-03-08T05:20:15;0.20;99.90
53520;DHT22;39397;53.204;5.778;2023-03-08T05:22:41;-1.20;99.90
53520;DHT22;39397;53.204;5.778;2023-03-08T05:25:08;0.40;99.90
53520;DHT22;39397;53.204;5.778;2023-03-08T05:27:35;-1.20;99.90
53520;DHT22;39397;53.204;5.778;2023-03-08T05:30:02;0.80;99.90
53520;DHT22;39397;53.204;5.778;2023-03-08T05:32:28;-0.10;99.90
53520;DHT22;39397;53.204;5.778;2023-03-08T05:34:53;0.50;99.90
53520;DHT22;39397;53.204;5.778;2023-03-08T05:37:19;-1.10;99.90
53520;DHT22;39397;53.204;5.778;2023-03-08T05:39:46;-1.10;99.90
53520;DHT22;39397;53.204;5.778;2023-03-08T05:42:13;-1.10;99.90
53520;DHT22;39397;53.204;5.778;2023-03-08T05:44:39;0.70;99.90
53520;DHT22;39397;53.204;5.778;2023-03-08T05:47:04;1.00;99.90
53520;DHT22;39397;53.204;5.778;2023-03-08T05:49:30;-1.20;99.90
53520;DHT22;39397;53.204;5.778;2023-03-08T05:51:56;-1.10;99.90
53520;DHT22;39397;53.204;5.778;2023-03-08T05:54:21;-1.00;99.90
53520;DHT22;39397;53.204;5.778;2023-03-08T05:56:47;-1.00;99.90
53520;DHT22;39397;53.204;5.778;2023-03-08T05:59:13;-0.90;99.90
53520;DHT22;39397;53.204;5.778;2023-03-08T06:01:39;0.20;99.90
53520;DHT22;39397;53.204;5.778;2023-03-08T06:04:05;0.60;99.90
53520;DHT22;39397;53.204;5.778;2023-03-08T06:06:30;-0.60;99.90
53520;DHT22;39397;53.204;5.778;2023-03-08T06:08:56;0.70;99.90
53520;DHT22;39397;53.204;5.778;2023-03-08T06:11:23;0.30;99.90
53520;DHT22;39397;53.204;5.778;2023-03-08T06:13:48;1.00;99.90
53520;DHT22;39397;53.204;5.778;2023-03-08T06:16:14;0.50;99.90
53520;DHT22;39397;53.204;5.778;2023-03-08T06:18:41;0.50;99.90
53520;DHT22;39397;53.204;5.778;2023-03-08T06:21:15;-0.90;99.90
53520;DHT22;39397;53.204;5.778;2023-03-08T06:23:42;-0.90;99.90
53520;DHT22;39397;53.204;5.778;2023-03-08T06:26:08;-0.30;99.90
53520;DHT22;39397;53.204;5.778;2023-03-08T06:28:35;-0.20;99.90
53520;DHT22;39397;53.204;5.778;2023-03-08T06:31:01;1.10;99.90
53520;DHT22;39397;53.204;5.778;2023-03-08T06:33:29;-0.80;99.90
53520;DHT22;39397;53.204;5.778;2023-03-08T06:36:04;-0.70;99.90
53520;DHT22;39397;53.204;5.778;2023-03-08T06:38:32;-0.90;99.90
53520;DHT22;39397;53.204;5.778;2023-03-08T06:40:58;-0.50;99.90
53520;DHT22;39397;53.204;5.778;2023-03-08T06:43:24;0.90;99.90
53520;DHT22;39397;53.204;5.778;2023-03-08T06:45:51;-0.60;99.90
53520;DHT22;39397;53.204;5.778;2023-03-08T06:48:17;-0.80;99.90
53520;DHT22;39397;53.204;5.778;2023-03-08T06:50:43;-0.70;99.90
53520;DHT22;39397;53.204;5.778;2023-03-08T06:53:09;-0.80;99.90
53520;DHT22;39397;53.204;5.778;2023-03-08T06:55:36;1.00;99.90
53520;DHT22;39397;53.204;5.778;2023-03-08T06:58:02;-0.60;99.90
53520;DHT22;39397;53.204;5.778;2023-03-08T07:00:28;1.00;99.90
53520;DHT22;39397;53.204;5.778;2023-03-08T07:02:54;-0.50;99.90
53520;DHT22;39397;53.204;5.778;2023-03-08T07:05:20;-0.50;99.90
53520;DHT22;39397;53.204;5.778;2023-03-08T07:07:46;1.50;99.90
53520;DHT22;39397;53.204;5.778;2023-03-08T07:10:12;-0.40;99.90
53520;DHT22;39397;53.204;5.778;2023-03-08T07:12:43;1.50;99.90
53520;DHT22;39397;53.204;5.778;2023-03-08T07:15:13;0.00;99.90
53520;DHT22;39397;53.204;5.778;2023-03-08T07:17:44;0.00;99.90
53520;DHT22;39397;53.204;5.778;2023-03-08T07:20:12;-0.10;99.90
53520;DHT22;39397;53.204;5.778;2023-03-08T07:22:41;0.00;99.90
53520;DHT22;39397;53.204;5.778;2023-03-08T07:25:13;1.00;99.90
53520;DHT22;39397;53.204;5.778;2023-03-08T07:27:39;0.20;99.90
53520;DHT22;39397;53.204;5.778;2023-03-08T07:30:05;1.60;99.90
53520;DHT22;39397;53.204;5.778;2023-03-08T07:32:34;0.40;99.90
53520;DHT22;39397;53.204;5.778;2023-03-08T07:34:59;0.50;99.90
53520;DHT22;39397;53.204;5.778;2023-03-08T07:37:25;0.60;99.90
53520;DHT22;39397;53.204;5.778;2023-03-08T07:39:51;0.60;99.90
53520;DHT22;39397;53.204;5.778;2023-03-08T07:42:17;2.20;99.90
53520;DHT22;39397;53.204;5.778;2023-03-08T07:44:43;0.90;99.90
53520;DHT22;39397;53.204;5.778;2023-03-08T07:47:08;1.20;99.90
53520;DHT22;39397;53.204;5.778;2023-03-08T07:49:34;1.30;99.90
53520;DHT22;39397;53.204;5.778;2023-03-08T07:52:00;2.20;99.90
53520;DHT22;39397;53.204;5.778;2023-03-08T07:54:26;1.20;99.90
53520;DHT22;39397;53.204;5.778;2023-03-08T07:56:52;1.30;99.90
53520;DHT22;39397;53.204;5.778;2023-03-08T07:59:18;2.00;99.90
53520;DHT22;39397;53.204;5.778;2023-03-08T08:01:44;1.30;99.90
53520;DHT22;39397;53.204;5.778;2023-03-08T08:04:10;1.40;99.90
53520;DHT22;39397;53.204;5.778;2023-03-08T08:06:37;1.50;99.90
53520;DHT22;39397;53.204;5.778;2023-03-08T08:09:03;2.10;99.90
53520;DHT22;39397;53.204;5.778;2023-03-08T08:11:29;1.70;99.90
53520;DHT22;39397;53.204;5.778;2023-03-08T08:13:55;2.30;99.90
53520;DHT22;39397;53.204;5.778;2023-03-08T08:16:21;1.80;99.90
53520;DHT22;39397;53.204;5.778;2023-03-08T08:18:46;1.80;99.90
53520;DHT22;39397;53.204;5.778;2023-03-08T08:21:14;3.20;99.90
53520;DHT22;39397;53.204;5.778;2023-03-08T08:23:41;2.00;99.90
53520;DHT22;39397;53.204;5.778;2023-03-08T08:26:16;2.10;99.90
53520;DHT22;39397;53.204;5.778;2023-03-08T08:28:43;2.30;99.90
53520;DHT22;39397;53.204;5.778;2023-03-08T08:31:12;3.70;99.90
53520;DHT22;39397;53.204;5.778;2023-03-08T08:33:38;2.60;99.90
53520;DHT22;39397;53.204;5.778;2023-03-08T08:36:09;2.30;99.90
53520;DHT22;39397;53.204;5.778;2023-03-08T08:38:36;2.40;99.90
53520;DHT22;39397;53.204;5.778;2023-03-08T08:41:03;4.00;99.90
53520;DHT22;39397;53.204;5.778;2023-03-08T08:43:29;2.50;99.90
53520;DHT22;39397;53.204;5.778;2023-03-08T08:45:57;2.70;99.90
53520;DHT22;39397;53.204;5.778;2023-03-08T08:48:23;2.70;99.90
53520;DHT22;39397;53.204;5.778;2023-03-08T08:50:49;2.80;99.90
53520;DHT22;39397;53.204;5.778;2023-03-08T08:53:15;4.00;99.90
53520;DHT22;39397;53.204;5.778;2023-03-08T08:55:41;3.50;99.90
53520;DHT22;39397;53.204;5.778;2023-03-08T08:58:07;3.10;99.90
53520;DHT22;39397;53.204;5.778;2023-03-08T09:00:33;3.20;99.90
53520;DHT22;39397;53.204;5.778;2023-03-08T09:03:00;5.00;99.90
53520;DHT22;39397;53.204;5.778;2023-03-08T09:05:26;3.60;99.90
53520;DHT22;39397;53.204;5.778;2023-03-08T09:07:56;3.40;99.90
53520;DHT22;39397;53.204;5.778;2023-03-08T09:10:27;3.50;99.90
53520;DHT22;39397;53.204;5.778;2023-03-08T09:12:53;3.50;99.90
53520;DHT22;39397;53.204;5.778;2023-03-08T09:15:19;5.30;99.90
53520;DHT22;39397;53.204;5.778;2023-03-08T09:17:46;4.80;99.90
53520;DHT22;39397;53.204;5.778;2023-03-08T09:20:12;5.30;99.90
53520;DHT22;39397;53.204;5.778;2023-03-08T09:22:39;3.80;99.90
53520;DHT22;39397;53.204;5.778;2023-03-08T09:25:06;5.40;99.90
53520;DHT22;39397;53.204;5.778;2023-03-08T09:27:32;4.00;99.90
53520;DHT22;39397;53.204;5.778;2023-03-08T09:29:57;5.60;99.90
53520;DHT22;39397;53.204;5.778;2023-03-08T09:32:24;4.10;99.90
53520;DHT22;39397;53.204;5.778;2023-03-08T09:34:53;4.10;99.90
53520;DHT22;39397;53.204;5.778;2023-03-08T09:37:19;4.30;99.90
53520;DHT22;39397;53.204;5.778;2023-03-08T09:39:45;4.10;99.90
53520;DHT22;39397;53.204;5.778;2023-03-08T09:42:20;5.00;99.90
53520;DHT22;39397;53.204;5.778;2023-03-08T09:47:44;4.30;99.90
53520;DHT22;39397;53.204;5.778;2023-03-08T09:52:39;6.10;99.90
53520;DHT22;39397;53.204;5.778;2023-03-08T09:55:24;4.90;99.90
53520;DHT22;39397;53.204;5.778;2023-03-08T09:58:10;4.60;99.90
53520;DHT22;39397;53.204;5.778;2023-03-08T10:00:38;4.70;99.90
53520;DHT22;39397;53.204;5.778;2023-03-08T10:06:53;4.90;99.90
53520;DHT22;39397;53.204;5.778;2023-03-08T10:09:02;5.00;99.90
53520;DHT22;39397;53.204;5.778;2023-03-08T10:12:08;5.10;99.90
53520;DHT22;39397;53.204;5.778;2023-03-08T10:15:00;5.10;99.90
53520;DHT22;39397;53.204;5.778;2023-03-08T10:17:38;5.10;99.90
53520;DHT22;39397;53.204;5.778;2023-03-08T10:20:44;5.30;99.90
53520;DHT22;39397;53.204;5.778;2023-03-08T10:23:16;5.40;99.90
53520;DHT22;39397;53.204;5.778;2023-03-08T10:25:43;5.40;99.90
53520;DHT22;39397;53.204;5.778;2023-03-08T10:28:19;5.50;99.90
53520;DHT22;39397;53.204;5.778;2023-03-08T10:30:53;5.60;99.90
53520;DHT22;39397;53.204;5.778;2023-03-08T10:33:20;5.60;99.90
53520;DHT22;39397;53.204;5.778;2023-03-08T10:38:32;5.80;99.90
53520;DHT22;39397;53.204;5.778;2023-03-08T10:43:31;5.90;99.90
53520;DHT22;39397;53.204;5.778;2023-03-08T10:46:10;6.70;99.90
53520;DHT22;39397;53.204;5.778;2023-03-08T10:48:36;6.10;99.90
53520;DHT22;39397;53.204;5.778;2023-03-08T10:51:04;6.10;99.90
53520;DHT22;39397;53.204;5.778;2023-03-08T10:53:31;6.00;99.90
53520;DHT22;39397;53.204;5.778;2023-03-08T10:55:59;6.00;99.90
53520;DHT22;39397;53.204;5.778;2023-03-08T10:58:34;5.80;99.90
53520;DHT22;39397;53.204;5.778;2023-03-08T11:06:24;6.10;99.90
53520;DHT22;39397;53.204;5.778;2023-03-08T11:08:53;7.40;99.90
53520;DHT22;39397;53.204;5.778;2023-03-08T11:11:19;6.10;99.90
53520;DHT22;39397;53.204;5.778;2023-03-08T11:13:49;6.20;99.90
53520;DHT22;39397;53.204;5.778;2023-03-08T11:16:46;6.50;99.90
53520;DHT22;39397;53.204;5.778;2023-03-08T11:27:44;7.30;99.90
53520;DHT22;39397;53.204;5.778;2023-03-08T11:36:01;6.60;99.90
53520;DHT22;39397;53.204;5.778;2023-03-08T11:38:31;6.70;99.90
53520;DHT22;39397;53.204;5.778;2023-03-08T11:46:28;6.60;99.90
53520;DHT22;39397;53.204;5.778;2023-03-08T11:52:03;6.50;99.90
53520;DHT22;39397;53.204;5.778;2023-03-08T11:57:30;6.70;99.90
53520;DHT22;39397;53.204;5.778;2023-03-08T12:00:24;6.70;99.90
53520;DHT22;39397;53.204;5.778;2023-03-08T12:02:49;7.10;99.90
53520;DHT22;39397;53.204;5.778;2023-03-08T12:05:28;7.60;99.90
53520;DHT22;39397;53.204;5.778;2023-03-08T12:07:59;8.00;99.90
53520;DHT22;39397;53.204;5.778;2023-03-08T12:13:05;7.20;99.90
53520;DHT22;39397;53.204;5.778;2023-03-08T12:15:53;7.50;99.90
53520;DHT22;39397;53.204;5.778;2023-03-08T12:18:44;7.30;99.90
53520;DHT22;39397;53.204;5.778;2023-03-08T12:21:36;7.30;99.90
53520;DHT22;39397;53.204;5.778;2023-03-08T12:24:17;7.30;99.90
53520;DHT22;39397;53.204;5.778;2023-03-08T12:29:45;7.40;99.90
53520;DHT22;39397;53.204;5.778;2023-03-08T12:32:12;6.40;99.90
53520;DHT22;39397;53.204;5.778;2023-03-08T12:34:41;7.20;99.90
53520;DHT22;39397;53.204;5.778;2023-03-08T12:40:05;7.20;99.90
53520;DHT22;39397;53.204;5.778;2023-03-08T12:42:34;7.30;99.90
53520;DHT22;39397;53.204;5.778;2023-03-08T12:45:24;7.40;99.90
53520;DHT22;39397;53.204;5.778;2023-03-08T12:50:39;7.60;99.90
53520;DHT22;39397;53.204;5.778;2023-03-08T12:59:00;7.70;99.90
53520;DHT22;39397;53.204;5.778;2023-03-08T13:01:57;8.10;99.90
53520;DHT22;39397;53.204;5.778;2023-03-08T13:04:31;8.50;99.90
53520;DHT22;39397;53.204;5.778;2023-03-08T13:12:21;7.30;99.90
53520;DHT22;39397;53.204;5.778;2023-03-08T13:15:16;8.10;99.90
53520;DHT22;39397;53.204;5.778;2023-03-08T13:26:05;7.00;99.90
53520;DHT22;39397;53.204;5.778;2023-03-08T13:28:38;6.80;99.90
53520;DHT22;39397;53.204;5.778;2023-03-08T13:33:51;7.80;99.90
53520;DHT22;39397;53.204;5.778;2023-03-08T13:36:23;6.70;99.90
53520;DHT22;39397;53.204;5.778;2023-03-08T13:41:50;6.70;99.90
53520;DHT22;39397;53.204;5.778;2023-03-08T13:46:42;6.90;99.90
53520;DHT22;39397;53.204;5.778;2023-03-08T13:51:47;6.70;99.90
53520;DHT22;39397;53.204;5.778;2023-03-08T13:54:16;6.70;99.90
53520;DHT22;39397;53.204;5.778;2023-03-08T13:56:45;6.70;99.90
53520;DHT22;39397;53.204;5.778;2023-03-08T13:59:18;6.60;99.90
53520;DHT22;39397;53.204;5.778;2023-03-08T14:01:49;6.70;99.90
53520;DHT22;39397;53.204;5.778;2023-03-08T14:04:33;6.70;99.90
53520;DHT22;39397;53.204;5.778;2023-03-08T14:07:00;6.80;99.90
53520;DHT22;39397;53.204;5.778;2023-03-08T14:09:26;6.60;99.90
53520;DHT22;39397;53.204;5.778;2023-03-08T14:11:58;6.50;99.90
53520;DHT22;39397;53.204;5.778;2023-03-08T14:14:31;6.40;99.90
53520;DHT22;39397;53.204;5.778;2023-03-08T14:16:58;6.50;99.90
53520;DHT22;39397;53.204;5.778;2023-03-08T14:19:33;6.80;99.90
53520;DHT22;39397;53.204;5.778;2023-03-08T14:22:20;6.40;99.90
53520;DHT22;39397;53.204;5.778;2023-03-08T14:24:54;6.40;99.90
53520;DHT22;39397;53.204;5.778;2023-03-08T14:29:46;8.10;99.90
53520;DHT22;39397;53.204;5.778;2023-03-08T14:34:40;6.80;99.90
53520;DHT22;39397;53.204;5.778;2023-03-08T14:37:26;6.20;99.90
53520;DHT22;39397;53.204;5.778;2023-03-08T14:39:54;7.90;99.90
53520;DHT22;39397;53.204;5.778;2023-03-08T14:42:51;6.40;99.90
53520;DHT22;39397;53.204;5.778;2023-03-08T14:45:38;6.10;99.90
53520;DHT22;39397;53.204;5.778;2023-03-08T14:55:49;7.50;99.90
53520;DHT22;39397;53.204;5.778;2023-03-08T14:58:15;6.30;99.90
53520;DHT22;39397;53.204;5.778;2023-03-08T15:00:51;5.90;99.90
53520;DHT22;39397;53.204;5.778;2023-03-08T15:03:17;7.00;99.90
53520;DHT22;39397;53.204;5.778;2023-03-08T15:05:48;6.90;99.90
53520;DHT22;39397;53.204;5.778;2023-03-08T15:08:20;6.50;99.90
53520;DHT22;39397;53.204;5.778;2023-03-08T15:10:47;5.90;99.90
53520;DHT22;39397;53.204;5.778;2023-03-08T15:13:19;5.90;99.90
53520;DHT22;39397;53.204;5.778;2023-03-08T15:15:46;6.30;99.90
53520;DHT22;39397;53.204;5.778;2023-03-08T15:18:12;5.90;99.90
53520;DHT22;39397;53.204;5.778;2023-03-08T15:20:43;5.90;99.90
53520;DHT22;39397;53.204;5.778;2023-03-08T15:23:30;7.70;99.90
53520;DHT22;39397;53.204;5.778;2023-03-08T15:25:57;5.80;99.90
53520;DHT22;39397;53.204;5.778;2023-03-08T15:28:24;5.80;99.90
53520;DHT22;39397;53.204;5.778;2023-03-08T15:30:51;6.40;99.90
53520;DHT22;39397;53.204;5.778;2023-03-08T15:33:19;7.10;99.90
53520;DHT22;39397;53.204;5.778;2023-03-08T15:35:47;7.30;99.90
53520;DHT22;39397;53.204;5.778;2023-03-08T15:38:16;6.90;99.90
53520;DHT22;39397;53.204;5.778;2023-03-08T15:40:42;7.50;99.90
53520;DHT22;39397;53.204;5.778;2023-03-08T15:43:09;5.70;99.90
53520;DHT22;39397;53.204;5.778;2023-03-08T15:45:35;5.60;99.90
53520;DHT22;39397;53.204;5.778;2023-03-08T15:48:10;6.70;99.90
53520;DHT22;39397;53.204;5.778;2023-03-08T15:50:36;5.70;99.90
53520;DHT22;39397;53.204;5.778;2023-03-08T15:53:02;6.30;99.90
53520;DHT22;39397;53.204;5.778;2023-03-08T15:55:29;6.90;99.90
53520;DHT22;39397;53.204;5.778;2023-03-08T15:57:55;6.90;99.90
53520;DHT22;39397;53.204;5.778;2023-03-08T16:00:22;6.30;99.90
53520;DHT22;39397;53.204;5.778;2023-03-08T16:02:48;5.30;99.90
53520;DHT22;39397;53.204;5.778;2023-03-08T16:05:15;5.50;99.90
53520;DHT22;39397;53.204;5.778;2023-03-08T16:07:41;5.60;99.90
53520;DHT22;39397;53.204;5.778;2023-03-08T16:10:10;6.90;99.90
53520;DHT22;39397;53.204;5.778;2023-03-08T16:12:36;5.20;99.90
53520;DHT22;39397;53.204;5.778;2023-03-08T16:15:02;7.00;99.90
53520;DHT22;39397;53.204;5.778;2023-03-08T16:17:29;5.20;99.90
53520;DHT22;39397;53.204;5.778;2023-03-08T16:20:08;6.50;99.90
53520;DHT22;39397;53.204;5.778;2023-03-08T16:22:33;5.20;99.90
53520;DHT22;39397;53.204;5.778;2023-03-08T16:24:59;6.10;99.90
53520;DHT22;39397;53.204;5.778;2023-03-08T16:27:29;6.90;99.90
53520;DHT22;39397;53.204;5.778;2023-03-08T16:29:56;6.10;99.90
53520;DHT22;39397;53.204;5.778;2023-03-08T16:32:22;5.00;99.90
53520;DHT22;39397;53.204;5.778;2023-03-08T16:34:48;5.50;99.90
53520;DHT22;39397;53.204;5.778;2023-03-08T16:37:21;3.20;99.90
53520;DHT22;39397;53.204;5.778;2023-03-08T16:39:48;4.60;99.90
53520;DHT22;39397;53.204;5.778;2023-03-08T16:42:14;4.50;99.90
53520;DHT22;39397;53.204;5.778;2023-03-08T16:44:40;6.10;99.90
53520;DHT22;39397;53.204;5.778;2023-03-08T16:47:12;4.50;99.90
53520;DHT22;39397;53.204;5.778;2023-03-08T16:49:38;5.50;99.90
53520;DHT22;39397;53.204;5.778;2023-03-08T16:52:03;6.40;99.90
53520;DHT22;39397;53.204;5.778;2023-03-08T16:54:30;4.50;99.90
53520;DHT22;39397;53.204;5.778;2023-03-08T16:56:55;4.40;99.90
53520;DHT22;39397;53.204;5.778;2023-03-08T16:59:21;4.20;99.90
53520;DHT22;39397;53.204;5.778;2023-03-08T17:01:47;5.80;99.90
53520;DHT22;39397;53.204;5.778;2023-03-08T17:04:14;4.70;99.90
53520;DHT22;39397;53.204;5.778;2023-03-08T17:06:43;6.20;99.90
53520;DHT22;39397;53.204;5.778;2023-03-08T17:09:09;4.40;99.90
53520;DHT22;39397;53.204;5.778;2023-03-08T17:11:35;4.40;99.90
53520;DHT22;39397;53.204;5.778;2023-03-08T17:14:06;4.40;99.90
53520;DHT22;39397;53.204;5.778;2023-03-08T17:16:33;3.80;99.90
53520;DHT22;39397;53.204;5.778;2023-03-08T17:19:00;6.00;99.90
53520;DHT22;39397;53.204;5.778;2023-03-08T17:21:27;6.00;99.90
53520;DHT22;39397;53.204;5.778;2023-03-08T17:23:53;4.80;99.90
53520;DHT22;39397;53.204;5.778;2023-03-08T17:26:20;2.80;99.90
53520;DHT22;39397;53.204;5.778;2023-03-08T17:28:48;3.80;99.90
53520;DHT22;39397;53.204;5.778;2023-03-08T17:31:16;4.30;99.90
53520;DHT22;39397;53.204;5.778;2023-03-08T17:33:43;4.40;99.90